Time;durP1;ratioP1;P1;durP2;ratioP2;P2;SDS_P1;SDS_P2;PMS_P1;PMS_P2;Temp;Humidity;BMP_temperature;BMP_pressure;BME280_temperature;BME280_humidity;BME280_pressure;Samples;Min_cycle;Max_cycle;Signal;HPM_P1;HPM_P2
2023/05/27 00:01:22;;;;;;;6.72;4.45;;;;;;;17.17;100.00;100339.34;5076658;28;20041;-66
2023/05/27 00:03:48;;;;;;;6.75;4.40;;;;;;;16.89;100.00;100289.75;5080161;28;20119;-67
2023/05/27 00:06:13;;;;;;;7.00;4.03;;;;;;;17.11;100.00;100345.69;5056601;28;20071;-67
2023/05/27 00:08:39;;;;;;;5.40;3.38;;;;;;;17.15;100.00;100339.38;5085063;28;20027;-66
2023/05/27 00:11:04;;;;;;;4.45;3.20;;;;;;;17.12;100.00;100343.91;5086508;28;20586;-65
2023/05/27 00:13:30;;;;;;;5.72;3.50;;;;;;;17.16;100.00;100337.59;5082282;28;20024;-66
2023/05/27 00:15:55;;;;;;;5.65;3.95;;;;;;;17.19;100.00;100353.44;5086757;28;20032;-67
2023/05/27 00:18:21;;;;;;;7.55;3.92;;;;;;;17.22;100.00;100356.84;5085049;28;20063;-66
2023/05/27 00:20:48;;;;;;;7.00;3.72;;;;;;;16.83;100.00;100337.63;5086205;28;20084;-68
2023/05/27 00:23:13;;;;;;;5.78;3.70;;;;;;;17.10;100.00;100349.25;5082734;28;20035;-66
2023/05/27 00:25:38;;;;;;;6.68;4.13;;;;;;;16.76;100.00;100302.44;5043276;28;20477;-66
2023/05/27 00:28:04;;;;;;;6.07;4.15;;;;;;;17.13;100.00;100343.00;5086462;28;20028;-66
2023/05/27 00:30:30;;;;;;;5.22;3.67;;;;;;;17.05;100.00;100337.91;5067156;28;20024;-67
2023/05/27 00:32:56;;;;;;;7.18;3.80;;;;;;;17.00;100.00;100337.19;5054752;28;20665;-66
2023/05/27 00:35:21;;;;;;;7.40;3.60;;;;;;;16.86;100.00;100324.31;5086217;28;20053;-67
2023/05/27 00:37:47;;;;;;;8.35;4.43;;;;;;;16.98;100.00;100333.69;5072025;28;20042;-66
2023/05/27 00:40:16;;;;;;;5.03;3.50;;;;;;;16.76;100.00;100275.06;5087363;28;20036;-67
2023/05/27 00:42:41;;;;;;;9.57;4.88;;;;;;;16.99;100.00;100335.44;5090291;28;20035;-66
2023/05/27 00:45:07;;;;;;;6.00;3.97;;;;;;;16.90;100.00;100323.28;5088392;28;20675;-67
2023/05/27 00:47:34;;;;;;;8.07;4.13;;;;;;;16.93;100.00;100309.97;5083301;28;20117;-67
2023/05/27 00:50:00;;;;;;;5.55;4.10;;;;;;;17.01;100.00;100310.59;5090235;28;20032;-66
2023/05/27 00:52:27;;;;;;;7.63;4.05;;;;;;;16.61;100.00;100274.59;5070893;28;20036;-66
2023/05/27 00:54:53;;;;;;;4.80;3.10;;;;;;;16.86;100.00;100306.63;5090213;28;20117;-67
2023/05/27 00:57:19;;;;;;;6.35;4.68;;;;;;;16.54;100.00;100250.97;5084560;28;20522;-66
2023/05/27 00:59:45;;;;;;;9.52;3.85;;;;;;;16.89;100.00;100310.97;5089922;28;20115;-66
2023/05/27 01:02:11;;;;;;;6.38;4.10;;;;;;;16.75;100.00;100284.81;5087733;28;20107;-67
2023/05/27 01:04:36;;;;;;;6.35;4.88;;;;;;;16.57;100.00;100253.50;5064965;28;20040;-66
2023/05/27 01:07:23;;;;;;;6.15;4.22;;;;;;;16.96;100.00;100307.22;5089654;28;20032;-66
2023/05/27 01:10:14;;;;;;;4.43;3.38;;;;;;;16.88;100.00;100304.78;5089714;28;20032;-66
2023/05/27 01:12:48;;;;;;;5.03;3.53;;;;;;;16.72;100.00;100266.34;5086210;28;20029;-66
2023/05/27 01:15:14;;;;;;;7.18;4.60;;;;;;;16.85;100.00;100301.34;5082445;28;20446;-66
2023/05/27 01:17:44;;;;;;;7.88;4.22;;;;;;;16.83;100.00;100306.72;5084747;28;20088;-66
2023/05/27 01:20:11;;;;;;;5.72;3.83;;;;;;;16.64;100.00;100265.69;5088158;28;20036;-67
2023/05/27 01:22:41;;;;;;;5.85;4.18;;;;;;;16.81;100.00;100307.63;5071788;28;20046;-66
2023/05/27 01:25:07;;;;;;;10.20;3.97;;;;;;;15.82;100.00;100131.94;5089563;28;20039;-67
2023/05/27 01:27:33;;;;;;;8.25;4.30;;;;;;;16.81;100.00;100289.09;5089006;28;20502;-67
2023/05/27 01:30:00;;;;;;;5.22;4.03;;;;;;;16.87;100.00;100312.78;5070923;28;20399;-67
2023/05/27 01:32:37;;;;;;;4.88;3.63;;;;;;;16.92;100.00;100305.56;5089359;28;20040;-68
2023/05/27 01:35:12;;;;;;;9.45;4.75;;;;;;;16.80;100.00;100290.88;5087004;28;20047;-67
2023/05/27 01:37:42;;;;;;;7.20;4.75;;;;;;;16.96;100.00;100314.31;5089536;28;20515;-66
2023/05/27 01:40:10;;;;;;;6.60;3.63;;;;;;;16.94;100.00;100318.78;5089308;28;20030;-67
2023/05/27 01:42:39;;;;;;;4.70;3.53;;;;;;;16.97;100.00;100310.75;5084436;28;20039;-66
2023/05/27 01:45:06;;;;;;;6.47;4.78;;;;;;;16.98;100.00;100313.34;5082248;28;20415;-67
2023/05/27 01:47:32;;;;;;;8.00;4.28;;;;;;;16.95;100.00;100317.84;5081415;28;20122;-66
2023/05/27 01:49:57;;;;;;;7.65;4.03;;;;;;;16.66;100.00;100269.16;5089164;28;20036;-67
2023/05/27 01:52:23;;;;;;;8.25;4.65;;;;;;;16.88;100.00;100319.84;5075221;28;20629;-66
2023/05/27 01:54:48;;;;;;;7.03;4.95;;;;;;;16.95;100.00;100313.44;5089125;28;20067;-67
2023/05/27 01:57:14;;;;;;;5.70;4.38;;;;;;;16.97;100.00;100318.69;5087238;28;20112;-66
2023/05/27 01:59:40;;;;;;;5.18;3.88;;;;;;;16.96;100.00;100316.97;5087921;28;20024;-67
2023/05/27 02:02:05;;;;;;;6.68;5.30;;;;;;;16.79;100.00;100305.03;5070581;28;20036;-67
2023/05/27 02:04:31;;;;;;;5.30;3.55;;;;;;;16.62;100.00;100268.38;5088759;28;20039;-67
2023/05/27 02:06:56;;;;;;;8.45;5.35;;;;;;;16.98;100.00;100305.41;5087204;28;20088;-67
2023/05/27 02:09:22;;;;;;;11.98;4.35;;;;;;;17.00;100.00;100310.69;5088482;28;20031;-66
2023/05/27 02:11:47;;;;;;;5.20;3.75;;;;;;;16.73;100.00;100253.97;5080469;28;20083;-66
2023/05/27 02:14:14;;;;;;;10.23;3.72;;;;;;;17.03;100.00;100299.97;5088241;28;20042;-67
2023/05/27 02:16:39;;;;;;;5.95;4.53;;;;;;;17.02;100.00;100296.47;5087405;28;20036;-67
2023/05/27 02:19:05;;;;;;;5.13;4.13;;;;;;;16.99;100.00;100295.66;5082814;28;20680;-67
2023/05/27 02:21:31;;;;;;;5.72;3.88;;;;;;;17.03;100.00;100306.13;5052759;28;20047;-67
2023/05/27 02:23:57;;;;;;;6.30;4.30;;;;;;;16.45;100.00;100215.84;5086407;28;20035;-67
2023/05/27 02:26:23;;;;;;;5.97;4.00;;;;;;;16.89;100.00;100303.00;5088410;28;20479;-67
2023/05/27 02:28:48;;;;;;;6.13;4.47;;;;;;;16.98;100.00;100317.78;5087888;28;20205;-67
2023/05/27 02:31:14;;;;;;;8.52;5.43;;;;;;;16.90;100.00;100310.03;5084481;28;20069;-67
2023/05/27 02:33:39;;;;;;;6.65;4.57;;;;;;;16.88;100.00;100320.69;5046544;28;20048;-66
2023/05/27 02:36:06;;;;;;;8.75;3.33;;;;;;;16.87;100.00;100318.09;5079631;28;20032;-66
2023/05/27 02:38:31;;;;;;;5.20;3.75;;;;;;;16.76;100.00;100289.19;5077477;28;20036;-67
2023/05/27 02:40:57;;;;;;;5.78;4.35;;;;;;;16.81;100.00;100319.13;5069068;28;20036;-66
2023/05/27 02:43:22;;;;;;;5.50;4.07;;;;;;;16.83;100.00;100322.63;5087976;28;20028;-65
2023/05/27 02:45:48;;;;;;;5.53;3.67;;;;;;;16.50;100.00;100274.00;5076805;28;20078;-66
2023/05/27 02:48:13;;;;;;;6.30;4.20;;;;;;;16.70;100.00;100318.50;5084976;28;20032;-65
2023/05/27 02:50:39;;;;;;;5.00;3.63;;;;;;;16.79;100.00;100320.09;5084323;28;20031;-66
2023/05/27 02:53:04;;;;;;;6.50;5.47;;;;;;;16.43;100.00;100277.72;5086979;28;20046;-67
2023/05/27 02:55:30;;;;;;;7.15;4.70;;;;;;;16.51;100.00;100304.88;5085748;28;20056;-66
2023/05/27 02:57:55;;;;;;;7.57;4.65;;;;;;;16.60;100.00;100319.66;5079794;28;20131;-68
2023/05/27 03:00:21;;;;;;;8.73;4.68;;;;;;;16.53;100.00;100303.06;5087381;28;20043;-66
2023/05/27 03:02:47;;;;;;;6.30;4.60;;;;;;;16.40;100.00;100309.59;5083515;28;20035;-67
2023/05/27 03:05:13;;;;;;;7.50;4.60;;;;;;;16.36;100.00;100295.53;5084083;28;20327;-67
2023/05/27 03:07:41;;;;;;;6.50;4.32;;;;;;;16.59;100.00;100317.91;5076777;28;20032;-67
2023/05/27 03:10:07;;;;;;;8.98;4.70;;;;;;;16.56;100.00;100320.66;5068948;28;20478;-67
2023/05/27 03:12:33;;;;;;;8.80;5.45;;;;;;;16.14;100.00;100244.94;5087265;28;20058;-66
2023/05/27 03:14:59;;;;;;;10.23;5.07;;;;;;;16.58;100.00;100327.66;5086537;28;20477;-66
2023/05/27 03:17:24;;;;;;;10.05;4.60;;;;;;;16.62;100.00;100328.44;5079964;28;20024;-65
2023/05/27 03:19:50;;;;;;;7.57;4.90;;;;;;;16.63;100.00;100338.13;5079271;28;20036;-67
2023/05/27 03:22:16;;;;;;;8.27;5.35;;;;;;;16.38;100.00;100296.38;5084156;28;20032;-65
2023/05/27 03:24:41;;;;;;;7.82;5.63;;;;;;;16.63;100.00;100328.41;5082835;28;20036;-68
2023/05/27 03:27:07;;;;;;;6.72;5.03;;;;;;;16.62;100.00;100333.72;5085204;28;20039;-66
2023/05/27 03:29:32;;;;;;;9.43;4.63;;;;;;;16.60;100.00;100335.53;5058698;28;20036;-67
2023/05/27 03:31:58;;;;;;;8.38;5.35;;;;;;;16.65;100.00;100328.38;5065164;28;20028;-66
2023/05/27 03:34:24;;;;;;;7.32;5.75;;;;;;;16.73;100.00;100330.81;5086744;28;20479;-67
2023/05/27 03:36:50;;;;;;;7.82;5.05;;;;;;;16.75;100.00;100336.94;5087301;28;20460;-66
2023/05/27 03:39:16;;;;;;;10.23;6.28;;;;;;;16.47;100.00;100295.28;5086449;28;20043;-66
2023/05/27 03:41:42;;;;;;;8.73;6.22;;;;;;;16.67;100.00;100326.56;5081229;28;20064;-66
2023/05/27 03:44:07;;;;;;;10.48;7.30;;;;;;;16.85;100.00;100339.31;5078365;28;20088;-66
2023/05/27 03:46:34;;;;;;;10.52;6.60;;;;;;;16.73;100.00;100309.59;5085366;28;20039;-67
2023/05/27 03:49:00;;;;;;;8.50;6.30;;;;;;;16.83;100.00;100348.22;5089938;28;20093;-67
2023/05/27 03:51:25;;;;;;;9.32;5.80;;;;;;;16.96;100.00;100351.44;5089240;28;20709;-67
2023/05/27 03:53:51;;;;;;;11.52;5.82;;;;;;;16.55;100.00;100257.97;5082696;28;20042;-66
2023/05/27 03:56:16;;;;;;;13.77;7.90;;;;;;;16.93;100.00;100320.56;5088592;28;20138;-66
2023/05/27 03:58:42;;;;;;;9.65;5.85;;;;;;;17.23;100.00;100349.78;5079643;28;20036;-66
2023/05/27 04:01:08;;;;;;;9.90;6.40;;;;;;;17.24;100.00;100341.78;5081327;28;20043;-67
2023/05/27 04:03:33;;;;;;;6.40;5.00;;;;;;;17.30;100.00;100338.06;5086832;28;20450;-67
2023/05/27 04:05:59;;;;;;;6.88;5.30;;;;;;;17.39;100.00;100351.06;5082892;28;20039;-67
2023/05/27 04:08:27;;;;;;;7.93;5.50;;;;;;;17.43;100.00;100363.34;5067463;28;20042;-66
2023/05/27 04:10:54;;;;;;;14.05;5.07;;;;;;;17.34;100.00;100353.00;5077824;28;20051;-66
2023/05/27 04:13:20;;;;;;;7.93;6.13;;;;;;;17.44;100.00;100346.53;5077582;28;20032;-65
2023/05/27 04:15:46;;;;;;;6.32;4.38;;;;;;;17.77;100.00;100388.88;5082837;28;20097;-66
2023/05/27 04:18:11;;;;;;;8.75;6.15;;;;;;;17.71;100.00;100379.31;5073663;28;20543;-66
2023/05/27 04:20:40;;;;;;;7.65;3.83;;;;;;;17.87;100.00;100393.03;5085752;28;20036;-67
2023/05/27 04:23:09;;;;;;;7.97;4.97;;;;;;;18.02;100.00;100396.13;5062004;28;20032;-67
2023/05/27 04:25:35;;;;;;;7.90;5.45;;;;;;;18.07;100.00;100399.50;5067254;28;20032;-66
2023/05/27 04:28:05;;;;;;;7.47;5.38;;;;;;;18.19;100.00;100401.78;5061391;28;20470;-66
2023/05/27 04:30:33;;;;;;;7.15;3.95;;;;;;;18.27;100.00;100409.50;5085629;28;20032;-66
2023/05/27 04:33:00;;;;;;;5.88;4.70;;;;;;;18.19;100.00;100411.53;5086526;28;20452;-67
2023/05/27 04:35:25;;;;;;;8.35;4.03;;;;;;;18.10;100.00;100413.56;5085895;28;20056;-67
2023/05/27 04:37:51;;;;;;;8.23;5.25;;;;;;;18.31;100.00;100411.16;5086486;28;20110;-66
2023/05/27 04:40:17;;;;;;;10.15;5.53;;;;;;;17.82;100.00;100303.84;5086485;28;20055;-66
2023/05/27 04:42:43;;;;;;;5.97;3.45;;;;;;;18.37;100.00;100397.66;5072787;28;20056;-66
2023/05/27 04:45:13;;;;;;;7.32;4.22;;;;;;;18.30;100.00;100409.41;5083365;28;20031;-67
2023/05/27 04:47:40;;;;;;;6.45;4.25;;;;;;;18.38;100.00;100406.50;5083401;28;20028;-67
2023/05/27 04:50:08;;;;;;;8.55;5.07;;;;;;;18.53;100.00;100412.19;5060943;28;20483;-66
2023/05/27 04:52:37;;;;;;;6.97;4.05;;;;;;;18.64;100.00;100405.66;5080313;28;20032;-66
2023/05/27 04:55:06;;;;;;;6.68;3.53;;;;;;;18.82;100.00;100425.44;5078587;28;20051;-67
2023/05/27 04:57:32;;;;;;;6.43;3.65;;;;;;;18.55;100.00;100396.19;5085966;28;20036;-66
2023/05/27 05:00:17;;;;;;;6.75;3.72;;;;;;;18.62;100.00;100434.06;5067449;28;20061;-66
2023/05/27 05:02:46;;;;;;;9.63;4.05;;;;;;;18.74;100.00;100434.53;5085855;28;20790;-66
2023/05/27 05:05:12;;;;;;;5.95;4.13;;;;;;;18.85;100.00;100401.44;5079577;28;20385;-66
2023/05/27 05:07:40;;;;;;;6.75;5.18;;;;;;;19.08;100.00;100435.19;5075558;28;20039;-67
2023/05/27 05:10:10;;;;;;;5.18;3.63;;;;;;;19.50;100.00;100448.78;5083611;28;20020;-65
2023/05/27 05:12:36;;;;;;;5.95;4.30;;;;;;;19.55;100.00;100448.59;5075826;28;20052;-66
2023/05/27 05:15:02;;;;;;;22.13;7.25;;;;;;;19.72;100.00;100432.03;5084261;28;20071;-67
2023/05/27 05:17:28;;;;;;;18.60;8.05;;;;;;;19.78;100.00;100429.13;5084676;28;20459;-67
2023/05/27 05:19:54;;;;;;;5.95;3.90;;;;;;;19.84;100.00;100460.00;5076189;28;20071;-67
2023/05/27 05:22:22;;;;;;;7.07;4.07;;;;;;;19.71;100.00;100448.94;5082395;28;20039;-67
2023/05/27 05:24:48;;;;;;;6.05;4.18;;;;;;;19.78;100.00;100469.97;5071429;28;20040;-66
2023/05/27 05:27:13;;;;;;;7.50;4.35;;;;;;;19.86;100.00;100471.47;5079226;28;20032;-65
2023/05/27 05:29:39;;;;;;;6.82;4.50;;;;;;;19.77;100.00;100475.34;5082015;28;20123;-66
2023/05/27 05:32:05;;;;;;;7.57;5.20;;;;;;;19.92;100.00;100481.88;5078165;28;20038;-66
2023/05/27 05:34:30;;;;;;;5.57;4.18;;;;;;;19.43;100.00;100468.53;5089467;28;20016;-67
2023/05/27 05:36:56;;;;;;;6.57;4.25;;;;;;;19.54;100.00;100494.78;5082233;28;20032;-67
2023/05/27 05:39:21;;;;;;;5.35;3.22;;;;;;;19.69;100.00;100488.03;5088981;28;20367;-65
2023/05/27 05:41:47;;;;;;;6.63;4.72;;;;;;;19.74;100.00;100475.47;5088634;28;20032;-68
2023/05/27 05:44:13;;;;;;;6.32;3.80;;;;;;;19.86;100.00;100482.13;5086360;28;20035;-67
2023/05/27 05:46:38;;;;;;;6.47;3.78;;;;;;;19.89;100.00;100482.88;5066621;28;20044;-67
2023/05/27 05:49:05;;;;;;;6.97;4.25;;;;;;;19.99;100.00;100462.06;5064346;28;20188;-67
2023/05/27 05:51:30;;;;;;;8.23;5.07;;;;;;;20.27;100.00;100493.84;5075567;28;20039;-66
2023/05/27 05:53:57;;;;;;;8.35;6.53;;;;;;;20.42;100.00;100484.41;5066784;28;20754;-67
2023/05/27 05:56:23;;;;;;;8.70;3.58;;;;;;;20.43;100.00;100500.31;5065229;28;20092;-67
2023/05/27 05:58:49;;;;;;;10.23;4.22;;;;;;;19.94;100.00;100440.06;5077314;28;20138;-67
2023/05/27 06:01:15;;;;;;;5.50;3.33;;;;;;;20.84;100.00;100503.16;5037808;28;20075;-67
2023/05/27 06:03:41;;;;;;;4.72;3.38;;;;;;;20.79;100.00;100520.25;5065058;28;20040;-67
2023/05/27 06:06:07;;;;;;;6.32;4.43;;;;;;;21.28;100.00;100521.78;5040020;28;20128;-67
2023/05/27 06:08:32;;;;;;;5.88;3.55;;;;;;;20.75;100.00;100452.88;5069899;28;20024;-67
2023/05/27 06:10:58;;;;;;;7.47;3.85;;;;;;;21.17;100.00;100521.38;5074515;28;20036;-66
2023/05/27 06:13:23;;;;;;;5.30;3.33;;;;;;;21.26;100.00;100522.78;5065609;28;20049;-66
2023/05/27 06:15:49;;;;;;;9.43;3.75;;;;;;;21.25;100.00;100529.03;5008230;28;20045;-67
2023/05/27 06:18:14;;;;;;;3.90;2.53;;;;;;;20.72;100.00;100535.66;5020712;28;20045;-67
2023/05/27 06:20:39;;;;;;;5.97;3.72;;;;;;;20.96;100.00;100538.28;5025391;28;20250;-67
2023/05/27 06:23:06;;;;;;;6.70;3.33;;;;;;;20.99;100.00;100541.66;5025212;28;20033;-67
2023/05/27 06:25:32;;;;;;;5.43;2.90;;;;;;;21.19;100.00;100532.84;5024626;28;20057;-66
2023/05/27 06:27:57;;;;;;;5.28;3.65;;;;;;;21.07;100.00;100498.66;5024519;28;20038;-65
2023/05/27 06:30:22;;;;;;;5.28;2.90;;;;;;;21.18;100.00;100524.88;5024530;28;20067;-66
2023/05/27 06:32:48;;;;;;;20.17;3.45;;;;;;;20.73;100.00;100540.06;5024826;28;20531;-66
2023/05/27 06:35:13;;;;;;;6.78;3.40;;;;;;;20.58;100.00;100501.56;4995832;28;20465;-68
2023/05/27 06:37:39;;;;;;;8.82;4.22;;;;;;;20.71;100.00;100536.59;4973856;28;20077;-66
2023/05/27 06:40:05;;;;;;;6.32;3.28;;;;;;;21.23;100.00;100539.75;4991990;28;20124;-66
2023/05/27 06:42:30;;;;;;;6.97;3.75;;;;;;;21.32;100.00;100537.66;4989834;28;20553;-67
2023/05/27 06:44:56;;;;;;;6.75;3.85;;;;;;;21.50;100.00;100542.25;4990600;28;20051;-66
2023/05/27 06:47:21;;;;;;;7.75;3.92;;;;;;;;;;5018701;28;20607;-66
2023/05/27 06:49:47;;;;;;;10.70;3.95;;;;;;;21.59;100.00;100557.00;5038201;28;20055;-67
2023/05/27 06:52:12;;;;;;;5.82;2.55;;;;;;;21.69;100.00;100552.97;5029983;28;20169;-67
2023/05/27 06:54:38;;;;;;;4.05;2.85;;;;;;;21.75;100.00;100541.16;5052166;28;20124;-67
2023/05/27 06:57:03;;;;;;;4.90;3.00;;;;;;;21.54;100.00;100506.47;5043057;28;20057;-66
2023/05/27 06:59:29;;;;;;;6.43;2.67;;;;;;;21.80;100.00;100547.19;5020999;28;20045;-67
2023/05/27 07:01:56;;;;;;;5.28;3.70;;;;;;;22.19;100.00;100573.88;5032501;28;20041;-66
2023/05/27 07:04:21;;;;;;;5.50;3.08;;;;;;;21.42;100.00;100574.63;5048953;28;20033;-66
2023/05/27 07:06:47;;;;;;;4.43;2.72;;;;;;;21.40;100.00;100572.91;5065964;28;20047;-66
2023/05/27 07:09:13;;;;;;;4.63;3.55;;;;;;;21.15;100.00;100579.25;5086835;28;20038;-66
2023/05/27 07:11:42;;;;;;;3.65;2.72;;;;;;;21.19;100.00;100574.66;5068139;28;20064;-67
2023/05/27 07:14:09;;;;;;;11.10;4.35;;;;;;;21.20;100.00;100576.41;5075659;28;20435;-67
2023/05/27 07:16:34;;;;;;;5.45;3.03;;;;;;;20.86;100.00;100522.63;5071816;28;20101;-67
2023/05/27 07:19:00;;;;;;;6.30;3.20;;;;;;;21.21;100.00;100562.13;5086465;28;20028;-66
2023/05/27 07:21:25;;;;;;;7.15;4.03;;;;;;;21.24;100.00;100562.00;5087182;28;20682;-67
2023/05/27 07:23:51;;;;;;;5.47;4.82;;;;;;;21.38;100.00;100564.09;5087119;28;20050;-67
2023/05/27 07:26:16;;;;;;;4.35;3.38;;;;;;;21.48;100.00;100560.13;5077167;28;20036;-67
2023/05/27 07:28:42;;;;;;;4.30;2.95;;;;;;;21.69;100.00;100566.34;5085411;28;20506;-66
2023/05/27 07:31:07;;;;;;;5.60;3.65;;;;;;;21.75;100.00;100557.19;5087120;28;20761;-67
2023/05/27 07:33:33;;;;;;;5.28;3.13;;;;;;;21.79;100.00;100566.81;5078080;28;20032;-67
2023/05/27 07:35:58;;;;;;;6.32;3.90;;;;;;;21.59;100.00;100555.19;5084961;28;20059;-68
2023/05/27 07:38:24;;;;;;;4.15;2.65;;;;;;;21.82;100.00;100572.91;5086624;28;20035;-67
2023/05/27 07:40:49;;;;;;;5.82;3.33;;;;;;;21.85;100.00;100572.75;5064161;28;20047;-67
2023/05/27 07:43:15;;;;;;;6.63;3.38;;;;;;;21.82;100.00;100561.31;5049531;28;20465;-66
2023/05/27 07:45:40;;;;;;;17.98;4.85;;;;;;;22.18;100.00;100565.97;5089453;28;20037;-66
2023/05/27 07:48:06;;;;;;;6.40;2.97;;;;;;;22.26;100.00;100563.81;5084994;28;20127;-66
2023/05/27 07:50:31;;;;;;;4.00;2.55;;;;;;;22.56;100.00;100558.84;5088145;28;20559;-65
2023/05/27 07:52:57;;;;;;;5.03;3.28;;;;;;;22.70;100.00;100552.84;5083282;28;20032;-67
2023/05/27 07:55:22;;;;;;;4.80;3.40;;;;;;;22.29;100.00;100558.34;5082336;28;20072;-67
2023/05/27 07:57:48;;;;;;;7.35;2.92;;;;;;;22.51;100.00;100558.19;5086170;28;20048;-67
2023/05/27 08:00:13;;;;;;;4.65;3.22;;;;;;;22.88;100.00;100561.78;5066353;28;20089;-66
2023/05/27 08:02:39;;;;;;;9.07;2.53;;;;;;;22.94;100.00;100559.69;5074967;28;20735;-66
2023/05/27 08:05:04;;;;;;;5.03;3.25;;;;;;;22.54;100.00;100569.59;5086373;28;20059;-66
2023/05/27 08:07:30;;;;;;;5.40;3.20;;;;;;;22.80;100.00;100561.28;5068024;28;20209;-66
2023/05/27 08:09:56;;;;;;;3.75;2.33;;;;;;;23.09;100.00;100567.94;5073989;28;20036;-67
2023/05/27 08:12:22;;;;;;;6.57;3.03;;;;;;;22.63;100.00;100519.31;5084401;28;20128;-66
2023/05/27 08:14:49;;;;;;;7.25;4.60;;;;;;;23.12;100.00;100557.06;5079845;28;20032;-66
2023/05/27 08:17:15;;;;;;;4.45;3.35;;;;;;;23.13;100.00;100583.78;5066663;28;20056;-67
2023/05/27 08:19:40;;;;;;;6.53;3.33;;;;;;;22.43;100.00;100563.03;5086380;28;20463;-67
2023/05/27 08:22:08;;;;;;;5.60;2.20;;;;;;;22.10;100.00;100552.91;5086165;28;20028;-66
2023/05/27 08:24:34;;;;;;;4.15;2.88;;;;;;;22.67;100.00;100577.06;5083344;28;20040;-66
2023/05/27 08:27:00;;;;;;;4.15;2.53;;;;;;;22.39;100.00;100574.81;5081632;28;20116;-67
2023/05/27 08:29:27;;;;;;;4.50;2.90;;;;;;;22.43;100.00;100582.63;5086030;28;20082;-66
2023/05/27 08:31:53;;;;;;;5.03;3.15;;;;;;;22.22;100.00;100586.28;5060065;28;20040;-68
2023/05/27 08:34:19;;;;;;;5.35;3.95;;;;;;;22.61;100.00;100569.31;5086050;28;20035;-69
2023/05/27 08:36:44;;;;;;;6.80;4.18;;;;;;;22.89;100.00;100547.47;5071595;28;20036;-67
2023/05/27 08:39:10;;;;;;;4.78;2.70;;;;;;;22.73;100.00;100580.31;5080997;28;20036;-67
2023/05/27 08:41:37;;;;;;;4.80;3.00;;;;;;;22.66;100.00;100522.69;5086201;28;20032;-66
2023/05/27 08:44:02;;;;;;;5.03;2.92;;;;;;;23.58;100.00;100582.38;5074532;28;20024;-69
2023/05/27 08:46:28;;;;;;;5.18;3.10;;;;;;;22.88;100.00;100580.53;5084305;28;20075;-67
2023/05/27 08:48:57;;;;;;;4.47;2.45;;;;;;;22.99;100.00;100548.75;5080002;28;20033;-66
2023/05/27 08:51:23;;;;;;;4.55;2.75;;;;;;;22.74;100.00;100575.84;5086144;28;20048;-66
2023/05/27 08:53:49;;;;;;;6.50;3.05;;;;;;;22.47;100.00;100580.66;5085055;28;20044;-66
2023/05/27 08:56:19;;;;;;;4.72;3.17;;;;;;;22.48;100.00;100572.59;5085502;28;20131;-67
2023/05/27 08:58:45;;;;;;;5.30;3.83;;;;;;;22.46;100.00;100552.22;5089440;28;20048;-68
2023/05/27 09:01:12;;;;;;;6.88;2.88;;;;;;;22.74;100.00;100567.81;5079934;28;20077;-67
2023/05/27 09:03:37;;;;;;;7.00;2.97;;;;;;;22.94;100.00;100570.41;5067927;28;20406;-66
2023/05/27 09:06:04;;;;;;;4.72;3.42;;;;;;;22.84;100.00;100498.66;5049751;28;20048;-67
2023/05/27 09:08:30;;;;;;;7.38;4.20;;;;;;;22.79;100.00;100555.06;5088339;28;20054;-67
2023/05/27 09:10:55;;;;;;;6.03;4.28;;;;;;;23.05;100.00;100569.88;5075687;28;20028;-67
2023/05/27 09:13:28;;;;;;;6.15;4.00;;;;;;;23.11;100.00;100577.63;5073224;28;20106;-67
2023/05/27 09:16:05;;;;;;;4.32;2.90;;;;;;;23.45;100.00;100572.38;5089404;28;20046;-67
2023/05/27 09:18:33;;;;;;;3.83;2.53;;;;;;;23.48;100.00;100569.53;5054648;28;20041;-66
2023/05/27 09:20:59;;;;;;;5.45;3.42;;;;;;;23.84;98.86;100502.47;5088643;28;20028;-67
2023/05/27 09:23:25;;;;;;;4.72;3.03;;;;;;;24.61;97.84;100560.84;5078984;28;20032;-66
2023/05/27 09:25:51;;;;;;;4.43;2.95;;;;;;;24.17;97.78;100550.72;5086414;28;20105;-66
2023/05/27 09:28:24;;;;;;;4.90;4.07;;;;;;;23.29;100.00;100529.44;5086927;28;20115;-66
2023/05/27 09:31:00;;;;;;;4.57;2.50;;;;;;;24.05;96.58;100547.84;5079918;28;20051;-67
2023/05/27 09:33:27;;;;;;;5.15;3.35;;;;;;;24.39;100.00;100526.25;5074344;28;20157;-66
2023/05/27 09:35:52;;;;;;;3.85;2.83;;;;;;;25.09;87.00;100536.63;5088175;28;20036;-67
2023/05/27 09:38:18;;;;;;;5.13;3.03;;;;;;;24.75;94.13;100538.59;5088658;28;20047;-65
2023/05/27 09:40:46;;;;;;;6.70;3.50;;;;;;;24.94;92.46;100511.53;5088292;28;20036;-66
2023/05/27 09:43:18;;;;;;;3.55;2.83;;;;;;;26.00;86.24;100525.84;5070304;28;20067;-67
2023/05/27 09:45:44;;;;;;;4.30;2.70;;;;;;;25.51;82.05;100535.06;5087417;28;20032;-66
2023/05/27 09:48:12;;;;;;;4.82;2.50;;;;;;;24.18;89.36;100522.06;5086699;28;20035;-66
2023/05/27 09:50:38;;;;;;;6.50;2.22;;;;;;;23.92;95.35;100460.03;5075340;28;20051;-66
2023/05/27 09:53:04;;;;;;;6.03;3.67;;;;;;;24.72;92.39;100519.09;5066090;28;20032;-66
2023/05/27 09:55:30;;;;;;;3.83;2.75;;;;;;;25.28;84.47;100507.75;5088399;28;20066;-67
2023/05/27 09:57:56;;;;;;;6.97;3.85;;;;;;;25.60;80.78;100486.13;5085905;28;20044;-66
2023/05/27 10:00:23;;;;;;;3.92;2.50;;;;;;;25.66;78.31;100412.31;5082199;28;20028;-67
2023/05/27 10:02:49;;;;;;;4.32;2.50;;;;;;;26.17;74.91;100503.25;5081497;28;20135;-66
2023/05/27 10:05:16;;;;;;;4.88;2.95;;;;;;;25.97;72.93;100507.22;5083649;28;20066;-66
2023/05/27 10:07:44;;;;;;;3.92;3.40;;;;;;;25.86;74.85;100499.78;5079954;28;20044;-67
2023/05/27 10:10:11;;;;;;;4.45;3.47;;;;;;;26.53;71.01;100497.34;5083452;28;20039;-67
2023/05/27 10:12:38;;;;;;;5.95;3.05;;;;;;;25.98;73.98;100500.88;5088196;28;20032;-67
2023/05/27 10:15:04;;;;;;;5.60;3.67;;;;;;;26.42;69.85;100489.94;5084616;28;20355;-68
2023/05/27 10:17:52;;;;;;;4.05;2.50;;;;;;;27.47;65.57;100480.31;5040211;28;20040;-66
2023/05/27 10:20:37;;;;;;;4.90;3.10;;;;;;;27.23;70.28;100480.16;5086810;28;20067;-67
2023/05/27 10:23:17;;;;;;;3.92;2.00;;;;;;;27.75;65.88;100445.03;5087001;28;20024;-66
2023/05/27 10:26:00;;;;;;;5.03;2.75;;;;;;;27.87;65.69;100461.34;5079730;28;20094;-67
2023/05/27 10:28:31;;;;;;;6.65;3.88;;;;;;;28.51;62.86;100445.00;5070834;28;20068;-66
2023/05/27 10:31:28;;;;;;;5.45;2.88;;;;;;;27.35;69.52;100445.16;5079119;28;20032;-67
2023/05/27 10:33:57;;;;;;;6.25;4.50;;;;;;;28.48;60.95;100440.69;4994566;28;20484;-66
2023/05/27 10:36:28;;;;;;;3.88;2.88;;;;;;;28.30;61.13;100388.03;5005347;28;20068;-67
2023/05/27 10:39:04;;;;;;;4.18;3.15;;;;;;;28.65;62.06;100423.22;5004497;28;20415;-66
2023/05/27 10:41:54;;;;;;;6.13;4.15;;;;;;;28.18;64.60;100431.16;5004779;28;20091;-67
2023/05/27 10:44:30;;;;;;;5.93;3.40;;;;;;;27.45;69.23;100431.03;5004597;28;20383;-67
2023/05/27 10:47:00;;;;;;;8.80;3.90;;;;;;;27.21;70.57;100420.16;5004650;28;20034;-69
2023/05/27 10:49:27;;;;;;;6.68;3.90;;;;;;;26.87;73.55;100419.72;5004636;28;20028;-66
2023/05/27 10:51:53;;;;;;;7.20;4.40;;;;;;;26.82;71.94;100420.03;5004346;28;20060;-66
2023/05/27 10:54:19;;;;;;;4.97;3.83;;;;;;;26.49;70.97;100423.13;4999154;28;20129;-67
2023/05/27 10:56:51;;;;;;;4.32;2.88;;;;;;;26.28;73.84;100428.97;4970672;28;20605;-65
2023/05/27 10:59:22;;;;;;;4.28;3.22;;;;;;;26.82;68.22;100425.41;5005150;28;21255;-66
2023/05/27 11:01:52;;;;;;;5.70;3.53;;;;;;;25.94;70.98;100379.19;5004473;28;20117;-67
2023/05/27 11:04:18;;;;;;;4.18;2.80;;;;;;;26.73;70.87;100408.06;5004504;28;20048;-67
2023/05/27 11:07:01;;;;;;;7.18;3.17;;;;;;;26.11;71.50;100407.69;5004735;28;20391;-67
2023/05/27 11:09:27;;;;;;;5.65;3.38;;;;;;;26.72;68.10;100409.03;4986425;28;20030;-67
2023/05/27 11:11:57;;;;;;;5.43;2.70;;;;;;;25.92;73.52;100374.88;5066103;28;20093;-65
2023/05/27 11:14:25;;;;;;;5.78;3.63;;;;;;;26.23;71.70;100379.13;5086017;28;20493;-67
2023/05/27 11:16:51;;;;;;;4.97;3.47;;;;;;;26.29;69.64;100398.41;5087120;28;20032;-66
2023/05/27 11:19:18;;;;;;;4.03;2.72;;;;;;;25.82;71.73;100375.41;5086225;28;20071;-67